createdAt,value
2018-12-10T00:01:53.644Z,97.20
2018-12-10T00:04:22.583Z,97.00
2018-12-10T00:06:51.393Z,97.20
2018-12-10T00:09:20.084Z,97.10
2018-12-10T00:11:48.849Z,97.20
2018-12-10T00:14:17.580Z,97.50
2018-12-10T00:16:46.383Z,97.60
2018-12-10T00:19:15.223Z,98.00
2018-12-10T00:21:44.150Z,98.20
2018-12-10T00:24:13.094Z,98.10
2018-12-10T00:26:42.180Z,98.10
2018-12-10T00:29:10.909Z,98.20
2018-12-10T00:31:39.712Z,98.30
2018-12-10T00:34:08.623Z,98.20
2018-12-10T00:36:37.499Z,98.00
2018-12-10T00:39:07.548Z,98.30
2018-12-10T00:41:36.282Z,97.90
2018-12-10T00:44:05.161Z,97.90
2018-12-10T00:46:34.215Z,97.70
2018-12-10T00:49:03.282Z,97.60
2018-12-10T00:51:32.102Z,97.20
2018-12-10T00:54:00.814Z,97.00
2018-12-10T00:56:29.476Z,96.90
2018-12-10T00:58:58.775Z,96.80
2018-12-10T01:01:27.580Z,96.70
2018-12-10T01:03:56.518Z,97.10
2018-12-10T01:06:25.371Z,97.30
2018-12-10T01:08:54.338Z,97.10
2018-12-10T01:11:23.558Z,96.90
2018-12-10T01:13:52.425Z,96.80
2018-12-10T01:16:21.151Z,97.10
2018-12-10T01:18:50.042Z,97.20
2018-12-10T01:21:18.892Z,97.40
2018-12-10T01:23:48.988Z,97.40
2018-12-10T01:26:17.824Z,97.10
2018-12-10T01:28:46.518Z,97.40
2018-12-10T01:31:15.261Z,97.60
2018-12-10T01:33:44.015Z,97.60
2018-12-10T01:36:12.632Z,97.60
2018-12-10T01:38:41.556Z,97.60
2018-12-10T01:41:10.277Z,97.50
2018-12-10T01:43:39.768Z,97.60
2018-12-10T01:46:08.594Z,97.40
2018-12-10T01:48:38.104Z,97.60
2018-12-10T01:51:07.042Z,97.50
2018-12-10T01:53:36.547Z,97.30
2018-12-10T01:56:05.470Z,97.40
2018-12-10T01:58:34.206Z,97.30
2018-12-10T02:01:02.915Z,97.20
2018-12-10T02:03:31.568Z,97.20
2018-12-10T02:06:00.316Z,97.20
2018-12-10T02:08:30.254Z,96.90
2018-12-10T02:10:59.085Z,96.60
2018-12-10T02:13:30.028Z,96.50
2018-12-10T02:15:58.776Z,95.80
2018-12-10T02:18:27.420Z,95.40
2018-12-10T02:20:56.163Z,95.70
2018-12-10T02:23:26.101Z,95.30
2018-12-10T02:25:54.841Z,94.90
2018-12-10T02:28:28.640Z,94.30
2018-12-10T02:30:57.373Z,94.50
2018-12-10T02:33:26.380Z,94.80
2018-12-10T02:35:55.054Z,95.00
2018-12-10T02:38:24.461Z,95.30
2018-12-10T02:40:53.231Z,95.30
2018-12-10T02:43:22.228Z,95.50
2018-12-10T02:45:51.215Z,95.70
2018-12-10T02:48:20.736Z,96.00
2018-12-10T02:50:49.417Z,96.10
2018-12-10T02:53:18.834Z,96.10
2018-12-10T02:55:47.494Z,96.20
2018-12-10T02:58:16.832Z,96.00
2018-12-10T03:00:45.588Z,95.90
2018-12-10T03:03:15.055Z,96.00
2018-12-10T03:05:43.793Z,95.90
2018-12-10T03:08:13.287Z,96.10
2018-12-10T03:10:41.968Z,96.10
2018-12-10T03:13:10.782Z,96.00
2018-12-10T03:15:39.421Z,95.50
2018-12-10T03:18:08.869Z,95.40
2018-12-10T03:20:37.549Z,95.40
2018-12-10T03:23:07.348Z,96.00
2018-12-10T03:25:36.040Z,95.80
2018-12-10T03:28:05.263Z,95.80
2018-12-10T03:30:34.302Z,95.90
2018-12-10T03:33:03.513Z,96.50
2018-12-10T03:35:32.254Z,96.20
2018-12-10T03:38:01.145Z,96.20
2018-12-10T03:40:30.305Z,96.10
2018-12-10T03:42:59.952Z,96.00
2018-12-10T03:45:28.807Z,96.10
2018-12-10T03:47:57.664Z,95.80
2018-12-10T03:50:26.441Z,95.80
2018-12-10T03:52:55.166Z,95.60
2018-12-10T03:55:23.949Z,95.50
2018-12-10T03:57:53.012Z,95.50
2018-12-10T04:00:21.859Z,95.80
2018-12-10T04:02:50.689Z,95.70
2018-12-10T04:05:20.186Z,95.80
2018-12-10T04:07:49.239Z,96.00
2018-12-10T04:10:18.182Z,96.00
2018-12-10T04:12:46.912Z,96.00
2018-12-10T04:15:15.962Z,96.20
2018-12-10T04:17:45.212Z,96.20
2018-12-10T04:20:13.939Z,95.90
2018-12-10T04:22:42.761Z,96.10
2018-12-10T04:25:11.798Z,96.50
2018-12-10T04:27:40.598Z,96.70
2018-12-10T04:30:09.450Z,96.60
2018-12-10T04:32:38.126Z,96.80
2018-12-10T04:35:07.289Z,96.90
2018-12-10T04:37:36.381Z,97.00
2018-12-10T04:40:05.325Z,96.90
2018-12-10T04:42:34.126Z,96.90
2018-12-10T04:45:02.910Z,96.80
2018-12-10T04:47:31.835Z,96.80
2018-12-10T04:50:00.599Z,96.70
2018-12-10T04:52:29.282Z,96.70
2018-12-10T04:54:57.968Z,96.50
2018-12-10T04:57:26.723Z,96.60
2018-12-10T04:59:55.322Z,96.60
2018-12-10T05:02:24.098Z,96.60
2018-12-10T05:04:53.912Z,96.60
2018-12-10T05:07:22.667Z,96.70
2018-12-10T05:09:51.496Z,96.80
2018-12-10T05:12:20.294Z,96.70
2018-12-10T05:14:49.078Z,96.50
2018-12-10T05:17:17.787Z,96.70
2018-12-10T05:19:46.439Z,96.80
2018-12-10T05:22:15.260Z,96.90
2018-12-10T05:24:44.012Z,97.00
2018-12-10T05:27:12.735Z,97.10
2018-12-10T05:29:41.597Z,97.00
2018-12-10T05:32:10.509Z,97.00
2018-12-10T05:34:39.342Z,96.50
2018-12-10T05:37:11.281Z,96.60
2018-12-10T05:39:43.083Z,96.70
2018-12-10T05:42:11.867Z,96.40
2018-12-10T05:44:40.588Z,96.40
2018-12-10T05:47:09.364Z,96.00
2018-12-10T05:49:38.073Z,96.10
2018-12-10T05:52:06.952Z,96.30
2018-12-10T05:54:35.765Z,96.30
2018-12-10T05:57:04.776Z,96.20
2018-12-10T05:59:34.760Z,96.00
2018-12-10T06:02:03.834Z,95.80
2018-12-10T06:04:32.664Z,95.90
2018-12-10T06:07:01.475Z,96.00
2018-12-10T06:09:30.605Z,96.00
2018-12-10T06:11:59.403Z,95.80
2018-12-10T06:14:28.407Z,95.90
2018-12-10T06:16:57.249Z,95.60
2018-12-10T06:19:26.087Z,95.50
2018-12-10T06:21:55.046Z,95.50
2018-12-10T06:24:23.822Z,95.50
2018-12-10T06:26:52.743Z,95.40
2018-12-10T06:29:21.583Z,95.40
2018-12-10T06:31:50.614Z,95.30
2018-12-10T06:34:19.554Z,95.40
2018-12-10T06:36:48.578Z,95.20
2018-12-10T06:39:17.965Z,95.50
2018-12-10T06:41:46.815Z,95.20
2018-12-10T06:44:15.647Z,95.00
2018-12-10T06:46:44.714Z,94.90
2018-12-10T06:49:13.590Z,94.90
2018-12-10T06:51:43.110Z,95.00
2018-12-10T06:54:11.928Z,95.20
2018-12-10T06:56:40.782Z,95.10
2018-12-10T06:59:11.149Z,95.30
2018-12-10T07:01:41.507Z,95.20
2018-12-10T07:04:10.226Z,95.20
2018-12-10T07:06:40.745Z,95.30
2018-12-10T07:09:09.606Z,95.20
2018-12-10T07:11:38.291Z,95.20
2018-12-10T07:14:07.276Z,95.10
2018-12-10T07:16:36.148Z,95.20
2018-12-10T07:19:05.062Z,95.20
2018-12-10T07:21:35.053Z,95.30
2018-12-10T07:24:04.089Z,95.40
2018-12-10T07:26:32.902Z,95.40
2018-12-10T07:29:02.478Z,95.50
2018-12-10T07:31:31.381Z,95.40
2018-12-10T07:34:00.174Z,95.30
2018-12-10T07:36:29.089Z,95.30
2018-12-10T07:38:58.049Z,95.00
2018-12-10T07:41:27.105Z,94.80
2018-12-10T07:43:55.984Z,95.00
2018-12-10T07:46:24.856Z,94.90
2018-12-10T07:48:54.354Z,94.90
2018-12-10T07:51:23.232Z,95.00
2018-12-10T07:53:52.100Z,95.00
2018-12-10T07:56:28.845Z,94.80
2018-12-10T07:58:51.909Z,94.80
2018-12-10T08:01:20.758Z,94.60
2018-12-10T08:03:49.524Z,94.40
2018-12-10T08:06:18.403Z,94.20
2018-12-10T08:08:47.155Z,94.20
2018-12-10T08:11:16.121Z,93.80
2018-12-10T08:13:45.903Z,93.60
2018-12-10T08:16:14.838Z,93.80
2018-12-10T08:18:43.632Z,93.90
2018-12-10T08:21:12.572Z,93.90
2018-12-10T08:23:41.655Z,93.70
2018-12-10T08:26:10.562Z,93.80
2018-12-10T08:28:39.410Z,93.50
2018-12-10T08:31:08.318Z,93.30
2018-12-10T08:33:37.285Z,93.50
2018-12-10T08:36:06.247Z,93.20
2018-12-10T08:38:35.788Z,93.00
2018-12-10T08:41:04.780Z,93.20
2018-12-10T08:43:33.720Z,93.40
2018-12-10T08:46:02.618Z,93.20
2018-12-10T08:48:33.467Z,93.30
2018-12-10T08:51:02.430Z,93.10
2018-12-10T08:53:32.136Z,93.00
2018-12-10T08:56:01.125Z,92.70
2018-12-10T08:58:30.191Z,92.70
2018-12-10T09:00:59.111Z,92.70
2018-12-10T09:03:30.195Z,92.70
2018-12-10T09:05:59.186Z,92.20
2018-12-10T09:08:27.971Z,92.40
2018-12-10T09:10:56.819Z,92.40
2018-12-10T09:13:27.703Z,92.20
2018-12-10T09:15:58.157Z,92.10
2018-12-10T09:18:27.163Z,92.10
2018-12-10T09:20:56.006Z,92.40
2018-12-10T09:23:26.430Z,92.20
2018-12-10T09:25:55.294Z,92.30
2018-12-10T09:28:24.234Z,91.80
2018-12-10T09:30:53.122Z,92.50
2018-12-10T09:33:22.857Z,92.50
2018-12-10T09:35:52.488Z,92.50
2018-12-10T09:38:21.346Z,92.30
2018-12-10T09:40:50.256Z,92.40
2018-12-10T09:43:19.682Z,92.60
2018-12-10T09:45:48.532Z,92.70
2018-12-10T09:48:18.010Z,92.90
2018-12-10T09:50:47.131Z,92.70
2018-12-10T09:53:16.725Z,92.50
2018-12-10T09:55:45.684Z,92.70
2018-12-10T09:58:14.367Z,92.40
2018-12-10T10:00:43.359Z,92.50
2018-12-10T10:03:12.815Z,92.30
2018-12-10T10:05:41.838Z,92.20
2018-12-10T10:08:11.375Z,92.40
2018-12-10T10:10:40.037Z,92.50
2018-12-10T10:13:08.817Z,92.30
2018-12-10T10:15:37.847Z,92.10
2018-12-10T10:18:08.207Z,92.10
2018-12-10T10:20:36.965Z,92.00
2018-12-10T10:23:07.432Z,92.10
2018-12-10T10:25:36.497Z,91.60
2018-12-10T10:28:06.087Z,91.60
2018-12-10T10:30:35.595Z,91.40
2018-12-10T10:33:05.692Z,91.60
2018-12-10T10:35:34.436Z,91.40
2018-12-10T10:38:05.053Z,91.20
2018-12-10T10:40:34.014Z,91.20
2018-12-10T10:43:03.516Z,91.20
2018-12-10T10:45:34.918Z,91.30
2018-12-10T10:48:04.463Z,91.30
2018-12-10T10:50:33.988Z,91.50
2018-12-10T10:53:03.483Z,91.50
2018-12-10T10:55:32.385Z,91.30
2018-12-10T10:58:01.657Z,91.60
2018-12-10T11:00:35.794Z,91.50
2018-12-10T11:03:10.063Z,91.40
2018-12-10T11:05:38.795Z,91.40
2018-12-10T11:08:09.631Z,91.40
2018-12-10T11:10:38.641Z,91.30
2018-12-10T11:13:10.063Z,91.30
2018-12-10T11:15:38.954Z,91.30
2018-12-10T11:18:09.506Z,91.30
2018-12-10T11:20:38.738Z,91.20
2018-12-10T11:23:08.212Z,90.90
2018-12-10T11:25:37.280Z,90.50
2018-12-10T11:28:06.637Z,90.60
2018-12-10T11:30:35.575Z,90.40
2018-12-10T11:33:05.033Z,90.50
2018-12-10T11:35:33.995Z,90.60
2018-12-10T11:38:03.579Z,90.50
2018-12-10T11:40:32.396Z,90.80
2018-12-10T11:43:01.288Z,90.90
2018-12-10T11:45:30.410Z,91.20
2018-12-10T11:47:59.365Z,91.60
2018-12-10T11:50:28.195Z,91.80
2018-12-10T11:52:56.988Z,91.90
2018-12-10T11:55:25.824Z,92.10
2018-12-10T11:57:54.482Z,92.10
2018-12-10T12:00:23.490Z,92.10
2018-12-10T12:02:52.349Z,92.00
2018-12-10T12:05:21.296Z,92.00
2018-12-10T12:07:50.624Z,92.10
2018-12-10T12:10:19.539Z,92.00
2018-12-10T12:12:48.572Z,92.20
2018-12-10T12:15:17.652Z,92.10
2018-12-10T12:17:46.570Z,92.20
2018-12-10T12:20:15.533Z,92.40
2018-12-10T12:22:44.329Z,92.50
2018-12-10T12:25:13.526Z,92.40
2018-12-10T12:27:42.636Z,92.50
2018-12-10T12:30:13.462Z,92.50
2018-12-10T12:32:42.359Z,92.70
2018-12-10T12:35:12.172Z,93.10
2018-12-10T12:37:41.294Z,93.10
2018-12-10T12:40:10.065Z,93.40
2018-12-10T12:42:38.988Z,93.30
2018-12-10T12:45:08.160Z,92.90
2018-12-10T12:47:37.080Z,93.10
2018-12-10T12:50:06.920Z,92.90
2018-12-10T12:52:35.757Z,93.00
2018-12-10T12:55:05.250Z,93.00
2018-12-10T12:57:34.112Z,92.60
2018-12-10T13:00:04.001Z,92.90
2018-12-10T13:02:32.890Z,92.70
2018-12-10T13:05:01.757Z,92.90
2018-12-10T13:07:30.959Z,92.80
2018-12-10T13:09:59.985Z,92.70
2018-12-10T13:12:29.151Z,92.30
2018-12-10T13:14:58.014Z,92.10
2018-12-10T13:17:27.012Z,91.90
2018-12-10T13:19:55.991Z,92.10
2018-12-10T13:22:24.729Z,92.30
2018-12-10T13:24:53.447Z,92.20
2018-12-10T13:27:22.414Z,91.90
2018-12-10T13:29:51.175Z,92.30
2018-12-10T13:32:21.270Z,91.60
2018-12-10T13:34:50.241Z,91.40
2018-12-10T13:37:19.295Z,91.50
2018-12-10T13:39:47.963Z,91.40
2018-12-10T13:42:16.833Z,91.90
2018-12-10T13:44:45.660Z,91.80
2018-12-10T13:47:14.740Z,92.00
2018-12-10T13:49:43.636Z,92.00
2018-12-10T13:52:13.430Z,91.90
2018-12-10T13:54:42.458Z,92.10
2018-12-10T13:57:11.405Z,92.20
2018-12-10T13:59:40.467Z,92.30
2018-12-10T14:02:09.882Z,92.50
2018-12-10T14:04:45.051Z,92.40
2018-12-10T14:07:14.266Z,92.50
2018-12-10T14:09:43.338Z,92.20
2018-12-10T14:12:12.604Z,92.10
2018-12-10T14:14:41.425Z,92.00
2018-12-10T14:17:10.396Z,92.30
2018-12-10T14:19:39.439Z,92.10
2018-12-10T14:22:08.489Z,92.50
2018-12-10T14:24:38.300Z,92.50
2018-12-10T14:27:07.822Z,92.40
2018-12-10T14:29:36.835Z,92.60
2018-12-10T14:32:06.152Z,92.60
2018-12-10T14:34:35.231Z,93.10
2018-12-10T14:37:04.406Z,93.20
2018-12-10T14:39:33.512Z,93.20
2018-12-10T14:42:02.406Z,93.00
2018-12-10T14:44:31.392Z,93.00
2018-12-10T14:47:00.170Z,92.80
2018-12-10T14:49:29.374Z,93.10
2018-12-10T14:51:58.215Z,92.80
2018-12-10T14:54:27.065Z,92.90
2018-12-10T14:56:56.771Z,92.90
2018-12-10T14:59:25.917Z,92.90
2018-12-10T15:01:54.955Z,92.80
2018-12-10T15:04:24.061Z,92.90
2018-12-10T15:06:52.935Z,93.00
2018-12-10T15:09:22.437Z,93.00
2018-12-10T15:11:51.482Z,92.70
2018-12-10T15:14:20.407Z,93.10
2018-12-10T15:16:49.361Z,92.80
2018-12-10T15:19:19.396Z,92.70
2018-12-10T15:21:48.675Z,92.70
2018-12-10T15:24:17.641Z,92.70
2018-12-10T15:26:46.924Z,92.80
2018-12-10T15:29:16.488Z,92.70
2018-12-10T15:31:45.381Z,92.90
2018-12-10T15:34:14.534Z,92.80
2018-12-10T15:36:43.787Z,92.80
2018-12-10T15:39:12.837Z,92.80
2018-12-10T15:41:42.185Z,93.00
2018-12-10T15:44:11.200Z,92.90
2018-12-10T15:46:40.051Z,92.90
2018-12-10T15:49:10.264Z,93.00
2018-12-10T15:51:39.194Z,92.70
2018-12-10T15:54:08.103Z,92.80
2018-12-10T15:56:37.064Z,93.00
2018-12-10T15:59:06.205Z,92.60
2018-12-10T16:01:36.110Z,92.60
2018-12-10T16:04:05.166Z,92.50
2018-12-10T16:06:34.328Z,92.60
2018-12-10T16:09:05.195Z,92.50
2018-12-10T16:11:34.751Z,92.50
2018-12-10T16:14:04.471Z,92.60
2018-12-10T16:16:33.629Z,92.60
2018-12-10T16:19:02.595Z,92.50
2018-12-10T16:21:31.520Z,92.50
2018-12-10T16:24:00.302Z,92.50
2018-12-10T16:26:29.160Z,92.60
2018-12-10T16:28:58.085Z,92.40
2018-12-10T16:31:27.313Z,92.40
2018-12-10T16:33:57.641Z,92.50
2018-12-10T16:36:27.964Z,92.50
2018-12-10T16:38:57.057Z,92.30
2018-12-10T16:41:26.139Z,92.30
2018-12-10T16:43:55.805Z,92.30
2018-12-10T16:46:25.246Z,91.90
2018-12-10T16:48:54.824Z,91.90
2018-12-10T16:51:24.095Z,91.80
2018-12-10T16:53:53.791Z,91.80
2018-12-10T16:56:24.547Z,91.80
2018-12-10T16:58:55.030Z,91.80
2018-12-10T17:01:24.013Z,91.80
2018-12-10T17:03:54.200Z,91.70
2018-12-10T17:06:23.857Z,91.50
2018-12-10T17:08:53.908Z,91.40
2018-12-10T17:11:22.823Z,91.40
2018-12-10T17:13:53.431Z,91.30
2018-12-10T17:16:23.505Z,91.20
2018-12-10T17:18:52.868Z,91.10
2018-12-10T17:21:21.752Z,90.80
2018-12-10T17:23:52.495Z,91.00
2018-12-10T17:26:22.173Z,90.90
2018-12-10T17:28:52.973Z,91.00
2018-12-10T17:31:22.085Z,91.20
2018-12-10T17:33:51.674Z,91.10
2018-12-10T17:36:21.200Z,91.00
2018-12-10T17:38:50.917Z,90.90
2018-12-10T17:41:20.640Z,91.20
2018-12-10T17:43:50.785Z,91.20
2018-12-10T17:46:20.063Z,90.90
2018-12-10T17:48:49.558Z,90.90
2018-12-10T17:51:18.740Z,91.10
2018-12-10T17:53:48.251Z,91.20
2018-12-10T17:56:17.733Z,91.20
2018-12-10T17:58:49.505Z,91.20
2018-12-10T18:01:18.515Z,91.10
2018-12-10T18:03:47.495Z,91.00
2018-12-10T18:06:16.704Z,91.10
2018-12-10T18:08:46.137Z,91.10
2018-12-10T18:11:15.420Z,90.90
2018-12-10T18:13:46.171Z,90.70
2018-12-10T18:16:15.024Z,90.70
2018-12-10T18:18:44.527Z,90.70
2018-12-10T18:21:13.647Z,90.60
2018-12-10T18:23:43.579Z,90.50
2018-12-10T18:26:12.460Z,90.50
2018-12-10T18:28:42.695Z,90.30
2018-12-10T18:31:11.955Z,90.20
2018-12-10T18:33:41.817Z,90.20
2018-12-10T18:36:11.434Z,90.20
2018-12-10T18:38:40.450Z,90.10
2018-12-10T18:41:09.600Z,90.10
2018-12-10T18:43:40.093Z,90.00
2018-12-10T18:46:08.927Z,89.90
2018-12-10T18:48:38.390Z,90.00
2018-12-10T18:51:07.830Z,90.10
2018-12-10T18:53:37.199Z,90.10
2018-12-10T18:56:06.230Z,90.10
2018-12-10T18:58:35.860Z,90.00
2018-12-10T19:01:06.006Z,90.00
2018-12-10T19:03:35.537Z,90.00
2018-12-10T19:06:04.518Z,90.20
2018-12-10T19:08:34.039Z,90.30
2018-12-10T19:11:03.100Z,90.30
2018-12-10T19:13:32.945Z,90.70
2018-12-10T19:16:02.451Z,90.40
2018-12-10T19:18:31.258Z,90.70
2018-12-10T19:21:01.194Z,90.70
2018-12-10T19:23:31.167Z,90.90
2018-12-10T19:26:00.080Z,90.90
2018-12-10T19:28:30.921Z,91.10
2018-12-10T19:31:00.015Z,91.00
2018-12-10T19:33:31.436Z,91.10
2018-12-10T19:36:00.451Z,91.30
2018-12-10T19:38:31.990Z,91.60
2018-12-10T19:41:00.871Z,91.60
2018-12-10T19:43:30.865Z,91.50
2018-12-10T19:46:00.303Z,91.50
2018-12-10T19:48:30.715Z,91.50
2018-12-10T19:50:59.912Z,91.80
2018-12-10T19:53:30.445Z,91.90
2018-12-10T19:55:59.584Z,91.90
2018-12-10T19:58:28.598Z,92.10
2018-12-10T20:00:57.601Z,92.20
2018-12-10T20:03:28.990Z,92.30
2018-12-10T20:06:03.188Z,92.40
2018-12-10T20:08:32.363Z,92.30
2018-12-10T20:11:01.309Z,92.50
2018-12-10T20:13:31.462Z,92.30
2018-12-10T20:16:00.395Z,92.40
2018-12-10T20:18:29.423Z,92.70
2018-12-10T20:20:58.373Z,92.90
2018-12-10T20:23:30.108Z,92.80
2018-12-10T20:25:59.359Z,92.80
2018-12-10T20:28:29.976Z,92.90
2018-12-10T20:30:59.233Z,92.80
2018-12-10T20:33:28.642Z,93.10
2018-12-10T20:35:57.748Z,93.00
2018-12-10T20:38:29.553Z,93.30
2018-12-10T20:41:01.905Z,93.50
2018-12-10T20:43:33.115Z,93.50
2018-12-10T20:46:02.338Z,93.80
2018-12-10T20:48:31.894Z,94.50
2018-12-10T20:51:01.504Z,94.60
2018-12-10T20:53:30.313Z,95.00
2018-12-10T20:55:59.147Z,95.10
2018-12-10T20:58:28.849Z,95.00
2018-12-10T21:00:57.811Z,94.80
2018-12-10T21:03:26.694Z,94.50
2018-12-10T21:06:00.708Z,94.40
2018-12-10T21:08:30.549Z,94.20
2018-12-10T21:10:59.649Z,94.60
2018-12-10T21:13:28.850Z,94.70
2018-12-10T21:15:57.737Z,95.00
2018-12-10T21:18:26.797Z,95.20
2018-12-10T21:20:55.801Z,95.50
2018-12-10T21:23:25.870Z,95.60
2018-12-10T21:25:55.122Z,95.70
2018-12-10T21:28:24.047Z,95.70
2018-12-10T21:30:52.932Z,95.70
2018-12-10T21:33:22.488Z,95.70
2018-12-10T21:35:51.394Z,95.80
2018-12-10T21:38:20.335Z,95.80
2018-12-10T21:40:49.329Z,95.80
2018-12-10T21:43:18.606Z,96.10
2018-12-10T21:45:47.585Z,96.20
2018-12-10T21:48:16.800Z,96.20
2018-12-10T21:50:46.829Z,96.20
2018-12-10T21:53:15.694Z,95.90
2018-12-10T21:55:44.673Z,95.90
2018-12-10T21:58:13.646Z,95.80
2018-12-10T22:00:42.475Z,95.60
2018-12-10T22:03:12.525Z,95.60
2018-12-10T22:05:41.623Z,95.60
2018-12-10T22:08:10.646Z,95.70
2018-12-10T22:10:39.698Z,95.50
2018-12-10T22:13:08.625Z,95.60
2018-12-10T22:15:37.669Z,95.60
2018-12-10T22:18:07.035Z,95.50
2018-12-10T22:20:36.283Z,95.60
2018-12-10T22:23:05.703Z,95.50
2018-12-10T22:25:34.822Z,95.30
2018-12-10T22:28:04.015Z,95.70
2018-12-10T22:30:32.964Z,95.50
2018-12-10T22:33:02.084Z,95.30
2018-12-10T22:35:31.014Z,95.20
2018-12-10T22:37:59.904Z,95.10
2018-12-10T22:40:28.754Z,95.10
2018-12-10T22:42:57.673Z,95.10
2018-12-10T22:45:26.789Z,94.90
2018-12-10T22:47:55.604Z,95.10
2018-12-10T22:50:24.495Z,95.10
2018-12-10T22:53:07.960Z,95.10
2018-12-10T22:55:37.777Z,95.20
2018-12-10T22:58:07.244Z,95.40
2018-12-10T23:00:42.357Z,95.20
2018-12-10T23:03:16.120Z,95.20
2018-12-10T23:05:45.227Z,95.20
2018-12-10T23:08:15.218Z,95.40
2018-12-10T23:10:44.280Z,95.40
2018-12-10T23:13:13.914Z,95.40
2018-12-10T23:15:42.826Z,95.40
2018-12-10T23:18:11.820Z,95.40
2018-12-10T23:20:40.729Z,95.40
2018-12-10T23:23:10.123Z,95.60
2018-12-10T23:25:39.006Z,95.40
2018-12-10T23:28:08.196Z,95.60
2018-12-10T23:30:37.282Z,95.60
2018-12-10T23:33:06.770Z,95.60
2018-12-10T23:35:35.663Z,95.50
2018-12-10T23:38:05.336Z,95.30
2018-12-10T23:40:34.315Z,95.30
2018-12-10T23:43:08.546Z,95.40
2018-12-10T23:45:37.344Z,95.10
2018-12-10T23:48:06.520Z,95.00
2018-12-10T23:50:35.516Z,94.90
2018-12-10T23:53:04.804Z,94.90
2018-12-10T23:55:34.050Z,95.00
2018-12-10T23:58:02.885Z,95.10
